sensor_id;sensor_type;location;lat;lon;timestamp;pressure;altitude;pressure_sealevel;temperature
28803;BMP280;15949;55.656;37.422;2023-11-21T00:05:02;98900.41;;;-9.29
28803;BMP280;15949;55.656;37.422;2023-11-21T00:10:10;98904.25;;;-9.27
28803;BMP280;15949;55.656;37.422;2023-11-21T00:15:16;98900.97;;;-9.27
28803;BMP280;15949;55.656;37.422;2023-11-21T00:20:21;98908.75;;;-9.29
28803;BMP280;15949;55.656;37.422;2023-11-21T00:25:27;98899.19;;;-9.20
28803;BMP280;15949;55.656;37.422;2023-11-21T00:30:32;98898.78;;;-9.17
28803;BMP280;15949;55.656;37.422;2023-11-21T00:35:38;98894.56;;;-9.23
28803;BMP280;15949;55.656;37.422;2023-11-21T00:40:44;98894.56;;;-9.23
28803;BMP280;15949;55.656;37.422;2023-11-21T00:45:49;98890.78;;;-9.14
28803;BMP280;15949;55.656;37.422;2023-11-21T00:50:55;98885.56;;;-9.13
28803;BMP280;15949;55.656;37.422;2023-11-21T00:56:01;98885.63;;;-9.19
28803;BMP280;15949;55.656;37.422;2023-11-21T01:01:08;98900.00;;;-9.26
28803;BMP280;15949;55.656;37.422;2023-11-21T01:06:13;98897.31;;;-9.31
28803;BMP280;15949;55.656;37.422;2023-11-21T01:11:19;98894.59;;;-9.30
28803;BMP280;15949;55.656;37.422;2023-11-21T01:16:25;98894.56;;;-9.23
28803;BMP280;15949;55.656;37.422;2023-11-21T01:21:31;98903.81;;;-9.17
28803;BMP280;15949;55.656;37.422;2023-11-21T01:26:37;98900.59;;;-9.24
28803;BMP280;15949;55.656;37.422;2023-11-21T01:31:42;98892.88;;;-9.36
28803;BMP280;15949;55.656;37.422;2023-11-21T01:36:48;98897.31;;;-9.31
28803;BMP280;15949;55.656;37.422;2023-11-21T01:41:53;98898.53;;;-9.40
28803;BMP280;15949;55.656;37.422;2023-11-21T01:46:59;98913.66;;;-9.40
28803;BMP280;15949;55.656;37.422;2023-11-21T01:52:05;98900.50;;;-9.43
28803;BMP280;15949;55.656;37.422;2023-11-21T01:57:11;98902.09;;;-9.55
28803;BMP280;15949;55.656;37.422;2023-11-21T02:02:17;98906.16;;;-9.54
28803;BMP280;15949;55.656;37.422;2023-11-21T02:07:23;98902.34;;;-9.63
28803;BMP280;15949;55.656;37.422;2023-11-21T02:12:28;98907.78;;;-9.66
28803;BMP280;15949;55.656;37.422;2023-11-21T02:17:34;98907.19;;;-9.68
28803;BMP280;15949;55.656;37.422;2023-11-21T02:22:40;98914.97;;;-9.63
28803;BMP280;15949;55.656;37.422;2023-11-21T02:27:47;98906.44;;;-9.68
28803;BMP280;15949;55.656;37.422;2023-11-21T02:32:54;98910.72;;;-9.69
28803;BMP280;15949;55.656;37.422;2023-11-21T02:38:00;98908.59;;;-9.72
28803;BMP280;15949;55.656;37.422;2023-11-21T02:43:05;98913.31;;;-9.82
28803;BMP280;15949;55.656;37.422;2023-11-21T02:48:11;98923.34;;;-9.75
28803;BMP280;15949;55.656;37.422;2023-11-21T02:53:16;98917.72;;;-9.71
28803;BMP280;15949;55.656;37.422;2023-11-21T02:58:22;98925.78;;;-9.56
28803;BMP280;15949;55.656;37.422;2023-11-21T03:03:28;98926.16;;;-9.59
28803;BMP280;15949;55.656;37.422;2023-11-21T03:08:34;98930.84;;;-9.62
28803;BMP280;15949;55.656;37.422;2023-11-21T03:13:40;98939.41;;;-9.70
28803;BMP280;15949;55.656;37.422;2023-11-21T03:18:49;98938.88;;;-9.85
28803;BMP280;15949;55.656;37.422;2023-11-21T03:23:54;98944.91;;;-9.93
28803;BMP280;15949;55.656;37.422;2023-11-21T03:29:00;98948.78;;;-9.90
28803;BMP280;15949;55.656;37.422;2023-11-21T03:34:05;98944.91;;;-9.93
28803;BMP280;15949;55.656;37.422;2023-11-21T03:39:11;98954.59;;;-9.83
28803;BMP280;15949;55.656;37.422;2023-11-21T03:44:17;98955.38;;;-9.89
28803;BMP280;15949;55.656;37.422;2023-11-21T03:49:23;98960.03;;;-9.86
28803;BMP280;15949;55.656;37.422;2023-11-21T03:54:29;98959.22;;;-9.80
28803;BMP280;15949;55.656;37.422;2023-11-21T03:59:35;98945.28;;;-9.82
28803;BMP280;15949;55.656;37.422;2023-11-21T04:04:40;98955.91;;;-9.80
28803;BMP280;15949;55.656;37.422;2023-11-21T04:09:47;98954.75;;;-9.78
28803;BMP280;15949;55.656;37.422;2023-11-21T04:14:52;98951.25;;;-9.77
28803;BMP280;15949;55.656;37.422;2023-11-21T04:19:58;98951.09;;;-9.82
28803;BMP280;15949;55.656;37.422;2023-11-21T04:25:04;98953.63;;;-9.82
28803;BMP280;15949;55.656;37.422;2023-11-21T04:30:10;98955.16;;;-9.81
28803;BMP280;15949;55.656;37.422;2023-11-21T04:35:16;98953.97;;;-9.78
28803;BMP280;15949;55.656;37.422;2023-11-21T04:40:22;98959.97;;;-9.73
28803;BMP280;15949;55.656;37.422;2023-11-21T04:45:27;98966.38;;;-9.70
28803;BMP280;15949;55.656;37.422;2023-11-21T04:50:33;98984.47;;;-9.87
28803;BMP280;15949;55.656;37.422;2023-11-21T04:55:38;98981.72;;;-9.85
28803;BMP280;15949;55.656;37.422;2023-11-21T05:00:44;98994.75;;;-9.88
28803;BMP280;15949;55.656;37.422;2023-11-21T05:05:50;99000.16;;;-9.91
28803;BMP280;15949;55.656;37.422;2023-11-21T05:10:56;99004.44;;;-10.05
28803;BMP280;15949;55.656;37.422;2023-11-21T05:16:01;99003.88;;;-10.20
28803;BMP280;15949;55.656;37.422;2023-11-21T05:21:09;99003.84;;;-10.13
28803;BMP280;15949;55.656;37.422;2023-11-21T05:26:14;99003.09;;;-10.07
28803;BMP280;15949;55.656;37.422;2023-11-21T05:31:20;98991.09;;;-10.12
28803;BMP280;15949;55.656;37.422;2023-11-21T05:36:26;98992.25;;;-10.08
28803;BMP280;15949;55.656;37.422;2023-11-21T05:41:31;98989.69;;;-9.95
28803;BMP280;15949;55.656;37.422;2023-11-21T05:46:37;99006.94;;;-9.92
28803;BMP280;15949;55.656;37.422;2023-11-21T05:51:42;98998.81;;;-9.87
28803;BMP280;15949;55.656;37.422;2023-11-21T05:56:48;98994.91;;;-9.90
28803;BMP280;15949;55.656;37.422;2023-11-21T06:01:54;99000.00;;;-9.96
28803;BMP280;15949;55.656;37.422;2023-11-21T06:07:00;99004.19;;;-9.90
28803;BMP280;15949;55.656;37.422;2023-11-21T06:12:07;99013.72;;;-9.86
28803;BMP280;15949;55.656;37.422;2023-11-21T06:17:12;99020.47;;;-9.79
28803;BMP280;15949;55.656;37.422;2023-11-21T06:22:18;99023.56;;;-9.71
28803;BMP280;15949;55.656;37.422;2023-11-21T06:27:24;99025.13;;;-9.70
28803;BMP280;15949;55.656;37.422;2023-11-21T06:32:30;99015.97;;;-9.51
28803;BMP280;15949;55.656;37.422;2023-11-21T06:37:36;99024.66;;;-9.47
28803;BMP280;15949;55.656;37.422;2023-11-21T06:42:41;99023.25;;;-9.36
28803;BMP280;15949;55.656;37.422;2023-11-21T06:47:47;99030.06;;;-9.37
28803;BMP280;15949;55.656;37.422;2023-11-21T06:53:02;99036.81;;;-9.24
28803;BMP280;15949;55.656;37.422;2023-11-21T06:58:09;99029.19;;;-9.18
28803;BMP280;15949;55.656;37.422;2023-11-21T07:03:14;99032.91;;;-9.20
28803;BMP280;15949;55.656;37.422;2023-11-21T07:08:20;99025.72;;;-9.23
28803;BMP280;15949;55.656;37.422;2023-11-21T07:13:26;99036.94;;;-9.13
28803;BMP280;15949;55.656;37.422;2023-11-21T07:18:31;99037.41;;;-9.29
28803;BMP280;15949;55.656;37.422;2023-11-21T07:23:37;99041.44;;;-9.28
28803;BMP280;15949;55.656;37.422;2023-11-21T07:28:43;99040.47;;;-9.27
28803;BMP280;15949;55.656;37.422;2023-11-21T07:33:48;99045.69;;;-9.15
28803;BMP280;15949;55.656;37.422;2023-11-21T07:38:54;99038.91;;;-9.28
28803;BMP280;15949;55.656;37.422;2023-11-21T07:43:59;99048.03;;;-9.20
28803;BMP280;15949;55.656;37.422;2023-11-21T07:49:05;99042.34;;;-9.09
28803;BMP280;15949;55.656;37.422;2023-11-21T07:54:11;99043.53;;;-9.12
28803;BMP280;15949;55.656;37.422;2023-11-21T07:59:16;99029.97;;;-9.11
28803;BMP280;15949;55.656;37.422;2023-11-21T08:04:23;99049.47;;;-8.99
28803;BMP280;15949;55.656;37.422;2023-11-21T08:09:29;99053.44;;;-9.10
28803;BMP280;15949;55.656;37.422;2023-11-21T08:14:35;99046.34;;;-8.95
28803;BMP280;15949;55.656;37.422;2023-11-21T08:19:46;99048.09;;;-8.95
28803;BMP280;15949;55.656;37.422;2023-11-21T08:24:54;99028.34;;;-8.98
28803;BMP280;15949;55.656;37.422;2023-11-21T08:30:02;99022.81;;;-8.89
28803;BMP280;15949;55.656;37.422;2023-11-21T08:35:08;99030.81;;;-8.92
28803;BMP280;15949;55.656;37.422;2023-11-21T08:40:15;99027.44;;;-8.86
28803;BMP280;15949;55.656;37.422;2023-11-21T08:45:22;99011.66;;;-8.75
28803;BMP280;15949;55.656;37.422;2023-11-21T08:50:27;99024.81;;;-8.66
28803;BMP280;15949;55.656;37.422;2023-11-21T08:55:33;99022.78;;;-8.82
28803;BMP280;15949;55.656;37.422;2023-11-21T09:00:42;99023.59;;;-8.88
28803;BMP280;15949;55.656;37.422;2023-11-21T09:05:50;99034.94;;;-9.04
28803;BMP280;15949;55.656;37.422;2023-11-21T09:10:56;99044.69;;;-9.14
28803;BMP280;15949;55.656;37.422;2023-11-21T09:16:02;99044.84;;;-9.02
28803;BMP280;15949;55.656;37.422;2023-11-21T09:21:08;99051.81;;;-8.98
28803;BMP280;15949;55.656;37.422;2023-11-21T09:26:14;99052.53;;;-8.91
28803;BMP280;15949;55.656;37.422;2023-11-21T09:31:21;99059.31;;;-8.85
28803;BMP280;15949;55.656;37.422;2023-11-21T09:36:28;99058.63;;;-8.74
28803;BMP280;15949;55.656;37.422;2023-11-21T09:41:52;99053.47;;;-8.85
28803;BMP280;15949;55.656;37.422;2023-11-21T09:47:01;99050.50;;;-8.76
28803;BMP280;15949;55.656;37.422;2023-11-21T09:52:08;99047.56;;;-8.73
28803;BMP280;15949;55.656;37.422;2023-11-21T09:57:15;99061.75;;;-8.72
28803;BMP280;15949;55.656;37.422;2023-11-21T10:02:23;99064.84;;;-8.38
28803;BMP280;15949;55.656;37.422;2023-11-21T10:07:31;99068.25;;;-8.26
28803;BMP280;15949;55.656;37.422;2023-11-21T10:12:38;99066.78;;;-8.40
28803;BMP280;15949;55.656;37.422;2023-11-21T10:17:45;99068.75;;;-8.42
28803;BMP280;15949;55.656;37.422;2023-11-21T10:22:51;99071.41;;;-8.37
28803;BMP280;15949;55.656;37.422;2023-11-21T10:27:58;99075.72;;;-8.38
28803;BMP280;15949;55.656;37.422;2023-11-21T10:33:07;99075.44;;;-8.54
28803;BMP280;15949;55.656;37.422;2023-11-21T10:38:17;99072.91;;;-8.54
28803;BMP280;15949;55.656;37.422;2023-11-21T10:43:26;99073.88;;;-8.55
28803;BMP280;15949;55.656;37.422;2023-11-21T10:48:32;99078.31;;;-8.51
28803;BMP280;15949;55.656;37.422;2023-11-21T10:53:42;99074.66;;;-8.55
28803;BMP280;15949;55.656;37.422;2023-11-21T10:58:49;99071.06;;;-8.66
28803;BMP280;15949;55.656;37.422;2023-11-21T11:03:56;99071.25;;;-8.67
28803;BMP280;15949;55.656;37.422;2023-11-21T11:09:03;99084.31;;;-8.77
28803;BMP280;15949;55.656;37.422;2023-11-21T11:14:10;99071.84;;;-8.72
28803;BMP280;15949;55.656;37.422;2023-11-21T11:19:17;99083.28;;;-8.69
28803;BMP280;15949;55.656;37.422;2023-11-21T11:40:39;99100.03;;;-8.75
28803;BMP280;15949;55.656;37.422;2023-11-21T11:45:46;99103.56;;;-8.82
28803;BMP280;15949;55.656;37.422;2023-11-21T11:51:12;99110.19;;;-8.88
28803;BMP280;15949;55.656;37.422;2023-11-21T11:56:33;99106.56;;;-9.05
28803;BMP280;15949;55.656;37.422;2023-11-21T12:01:46;99106.38;;;-9.04
28803;BMP280;15949;55.656;37.422;2023-11-21T12:06:52;99116.47;;;-8.97
28803;BMP280;15949;55.656;37.422;2023-11-21T12:11:58;99119.19;;;-8.98
28803;BMP280;15949;55.656;37.422;2023-11-21T12:17:05;99128.88;;;-8.95
28803;BMP280;15949;55.656;37.422;2023-11-21T12:22:11;99129.19;;;-8.85
28803;BMP280;15949;55.656;37.422;2023-11-21T12:27:17;99128.63;;;-8.81
28803;BMP280;15949;55.656;37.422;2023-11-21T12:32:23;99143.94;;;-8.82
28803;BMP280;15949;55.656;37.422;2023-11-21T12:37:30;99141.03;;;-8.86
28803;BMP280;15949;55.656;37.422;2023-11-21T12:42:37;99144.94;;;-8.90
28803;BMP280;15949;55.656;37.422;2023-11-21T12:47:44;99150.19;;;-8.85
28803;BMP280;15949;55.656;37.422;2023-11-21T12:52:51;99154.31;;;-8.97
28803;BMP280;15949;55.656;37.422;2023-11-21T12:58:01;99142.88;;;-9.06
28803;BMP280;15949;55.656;37.422;2023-11-21T13:03:18;99132.78;;;-9.06
28803;BMP280;15949;55.656;37.422;2023-11-21T13:08:25;99147.31;;;-9.01
28803;BMP280;15949;55.656;37.422;2023-11-21T13:13:31;99144.47;;;-9.12
28803;BMP280;15949;55.656;37.422;2023-11-21T13:18:37;99149.13;;;-9.15
28803;BMP280;15949;55.656;37.422;2023-11-21T13:23:47;99159.22;;;-9.15
28803;BMP280;15949;55.656;37.422;2023-11-21T13:28:54;99162.31;;;-9.26
28803;BMP280;15949;55.656;37.422;2023-11-21T13:33:59;99169.69;;;-9.18
28803;BMP280;15949;55.656;37.422;2023-11-21T13:39:10;99174.19;;;-9.20
28803;BMP280;15949;55.656;37.422;2023-11-21T13:44:20;99174.34;;;-9.09
28803;BMP280;15949;55.656;37.422;2023-11-21T13:49:34;99173.75;;;-9.17
28803;BMP280;15949;55.656;37.422;2023-11-21T13:54:45;99186.00;;;-9.27
28803;BMP280;15949;55.656;37.422;2023-11-21T13:59:51;99184.66;;;-9.10
28803;BMP280;15949;55.656;37.422;2023-11-21T14:04:57;99185.41;;;-9.10
28803;BMP280;15949;55.656;37.422;2023-11-21T14:10:06;99186.97;;;-9.15
28803;BMP280;15949;55.656;37.422;2023-11-21T14:15:17;99192.22;;;-9.10
28803;BMP280;15949;55.656;37.422;2023-11-21T14:20:24;99197.03;;;-9.02
28803;BMP280;15949;55.656;37.422;2023-11-21T14:25:29;99208.84;;;-8.96
28803;BMP280;15949;55.656;37.422;2023-11-21T14:30:35;99212.72;;;-9.00
28803;BMP280;15949;55.656;37.422;2023-11-21T14:35:41;99210.84;;;-9.11
28803;BMP280;15949;55.656;37.422;2023-11-21T14:40:47;99217.00;;;-9.00
28803;BMP280;15949;55.656;37.422;2023-11-21T14:45:52;99218.97;;;-9.02
28803;BMP280;15949;55.656;37.422;2023-11-21T14:50:58;99234.69;;;-9.27
28803;BMP280;15949;55.656;37.422;2023-11-21T14:56:07;99240.75;;;-9.21
28803;BMP280;15949;55.656;37.422;2023-11-21T15:01:13;99232.00;;;-9.12
28803;BMP280;15949;55.656;37.422;2023-11-21T15:06:18;99241.47;;;-9.14
28803;BMP280;15949;55.656;37.422;2023-11-21T15:11:25;99243.66;;;-9.11
28803;BMP280;15949;55.656;37.422;2023-11-21T15:16:35;99236.44;;;-9.27
28803;BMP280;15949;55.656;37.422;2023-11-21T15:21:52;99236.84;;;-9.17
28803;BMP280;15949;55.656;37.422;2023-11-21T15:26:58;99245.81;;;-9.48
28803;BMP280;15949;55.656;37.422;2023-11-21T15:32:05;99253.56;;;-9.43
28803;BMP280;15949;55.656;37.422;2023-11-21T15:37:12;99254.53;;;-9.37
28803;BMP280;15949;55.656;37.422;2023-11-21T15:42:17;99256.25;;;-9.31
28803;BMP280;15949;55.656;37.422;2023-11-21T15:47:23;99245.00;;;-9.28
28803;BMP280;15949;55.656;37.422;2023-11-21T15:52:29;99246.19;;;-9.37
28803;BMP280;15949;55.656;37.422;2023-11-21T15:57:35;99253.94;;;-9.32
28803;BMP280;15949;55.656;37.422;2023-11-21T16:02:40;99260.53;;;-9.31
28803;BMP280;15949;55.656;37.422;2023-11-21T16:07:46;99249.69;;;-9.52
28803;BMP280;15949;55.656;37.422;2023-11-21T16:12:52;99241.53;;;-9.60
28803;BMP280;15949;55.656;37.422;2023-11-21T16:17:58;99250.63;;;-9.72
28803;BMP280;15949;55.656;37.422;2023-11-21T16:23:04;99250.59;;;-9.79
28803;BMP280;15949;55.656;37.422;2023-11-21T16:28:09;99248.84;;;-9.85
28803;BMP280;15949;55.656;37.422;2023-11-21T16:33:15;99244.97;;;-9.81
28803;BMP280;15949;55.656;37.422;2023-11-21T16:38:21;99263.22;;;-9.79
28803;BMP280;15949;55.656;37.422;2023-11-21T16:43:26;99259.34;;;-9.88
28803;BMP280;15949;55.656;37.422;2023-11-21T16:48:32;99266.47;;;-9.92
28803;BMP280;15949;55.656;37.422;2023-11-21T16:53:38;99278.31;;;-9.92
28803;BMP280;15949;55.656;37.422;2023-11-21T16:58:45;99271.31;;;-9.97
28803;BMP280;15949;55.656;37.422;2023-11-21T17:03:51;99274.75;;;-10.04
28803;BMP280;15949;55.656;37.422;2023-11-21T17:08:57;99279.06;;;-10.05
28803;BMP280;15949;55.656;37.422;2023-11-21T17:14:07;99276.50;;;-10.11
28803;BMP280;15949;55.656;37.422;2023-11-21T17:19:13;99269.19;;;-10.00
28803;BMP280;15949;55.656;37.422;2023-11-21T17:24:19;99269.72;;;-10.04
28803;BMP280;15949;55.656;37.422;2023-11-21T17:29:24;99262.72;;;-10.15
28803;BMP280;15949;55.656;37.422;2023-11-21T17:34:31;99272.94;;;-10.30
28803;BMP280;15949;55.656;37.422;2023-11-21T17:39:37;99263.84;;;-10.25
28803;BMP280;15949;55.656;37.422;2023-11-21T17:44:44;99256.53;;;-10.19
28803;BMP280;15949;55.656;37.422;2023-11-21T17:49:51;99262.50;;;-10.27
28803;BMP280;15949;55.656;37.422;2023-11-21T17:54:56;99278.03;;;-10.17
28803;BMP280;15949;55.656;37.422;2023-11-21T18:00:03;99280.16;;;-10.20
28803;BMP280;15949;55.656;37.422;2023-11-21T18:05:11;99286.91;;;-10.28
28803;BMP280;15949;55.656;37.422;2023-11-21T18:10:18;99286.88;;;-10.34
28803;BMP280;15949;55.656;37.422;2023-11-21T18:15:25;99284.97;;;-10.32
28803;BMP280;15949;55.656;37.422;2023-11-21T18:20:30;99289.44;;;-10.28
28803;BMP280;15949;55.656;37.422;2023-11-21T18:25:36;99294.59;;;-10.36
28803;BMP280;15949;55.656;37.422;2023-11-21T18:30:41;99282.00;;;-10.42
28803;BMP280;15949;55.656;37.422;2023-11-21T18:35:48;99290.34;;;-10.42
28803;BMP280;15949;55.656;37.422;2023-11-21T18:40:54;99290.50;;;-10.43
28803;BMP280;15949;55.656;37.422;2023-11-21T18:46:02;99294.03;;;-10.38
28803;BMP280;15949;55.656;37.422;2023-11-21T18:51:08;99291.06;;;-10.48
28803;BMP280;15949;55.656;37.422;2023-11-21T18:56:21;99285.44;;;-10.50
28803;BMP280;15949;55.656;37.422;2023-11-21T19:01:28;99288.00;;;-10.43
28803;BMP280;15949;55.656;37.422;2023-11-21T19:06:34;99292.22;;;-10.50
28803;BMP280;15949;55.656;37.422;2023-11-21T19:11:39;99293.63;;;-10.41
28803;BMP280;15949;55.656;37.422;2023-11-21T19:16:45;99299.34;;;-10.54
28803;BMP280;15949;55.656;37.422;2023-11-21T19:21:51;99300.78;;;-10.45
28803;BMP280;15949;55.656;37.422;2023-11-21T19:26:57;99310.63;;;-10.50
28803;BMP280;15949;55.656;37.422;2023-11-21T19:32:03;99307.13;;;-10.55
28803;BMP280;15949;55.656;37.422;2023-11-21T19:37:09;99319.84;;;-10.57
28803;BMP280;15949;55.656;37.422;2023-11-21T19:42:15;99313.25;;;-10.58
28803;BMP280;15949;55.656;37.422;2023-11-21T19:47:20;99315.94;;;-10.66
28803;BMP280;15949;55.656;37.422;2023-11-21T19:52:26;99316.22;;;-10.82
28803;BMP280;15949;55.656;37.422;2023-11-21T19:57:31;99315.81;;;-10.86
28803;BMP280;15949;55.656;37.422;2023-11-21T20:02:38;99321.06;;;-10.81
28803;BMP280;15949;55.656;37.422;2023-11-21T20:07:44;99315.22;;;-10.88
28803;BMP280;15949;55.656;37.422;2023-11-21T20:12:50;99311.00;;;-10.81
28803;BMP280;15949;55.656;37.422;2023-11-21T20:17:56;99313.97;;;-10.77
28803;BMP280;15949;55.656;37.422;2023-11-21T20:23:02;99319.69;;;-10.83
28803;BMP280;15949;55.656;37.422;2023-11-21T20:28:07;99324.72;;;-10.83
28803;BMP280;15949;55.656;37.422;2023-11-21T20:33:14;99328.66;;;-10.74
28803;BMP280;15949;55.656;37.422;2023-11-21T20:38:19;99329.28;;;-10.72
28803;BMP280;15949;55.656;37.422;2023-11-21T20:43:25;99332.97;;;-10.68
28803;BMP280;15949;55.656;37.422;2023-11-21T20:48:31;99325.19;;;-10.73
28803;BMP280;15949;55.656;37.422;2023-11-21T20:53:37;99334.78;;;-10.83
28803;BMP280;15949;55.656;37.422;2023-11-21T20:58:43;99344.53;;;-10.74
28803;BMP280;15949;55.656;37.422;2023-11-21T21:03:49;99336.44;;;-10.69
28803;BMP280;15949;55.656;37.422;2023-11-21T21:08:55;99333.75;;;-10.68
28803;BMP280;15949;55.656;37.422;2023-11-21T21:14:01;99339.13;;;-10.71
28803;BMP280;15949;55.656;37.422;2023-11-21T21:19:07;99351.69;;;-10.77
28803;BMP280;15949;55.656;37.422;2023-11-21T21:24:13;99352.31;;;-10.69
28803;BMP280;15949;55.656;37.422;2023-11-21T21:29:19;99354.66;;;-10.67
28803;BMP280;15949;55.656;37.422;2023-11-21T21:34:28;99342.84;;;-10.67
28803;BMP280;15949;55.656;37.422;2023-11-21T21:39:44;99345.34;;;-10.73
28803;BMP280;15949;55.656;37.422;2023-11-21T21:44:53;99345.53;;;-10.68
28803;BMP280;15949;55.656;37.422;2023-11-21T21:49:58;99348.50;;;-10.58
28803;BMP280;15949;55.656;37.422;2023-11-21T21:55:04;99344.50;;;-10.52
28803;BMP280;15949;55.656;37.422;2023-11-21T22:00:11;99357.03;;;-10.59
28803;BMP280;15949;55.656;37.422;2023-11-21T22:05:18;99332.63;;;-10.65
28803;BMP280;15949;55.656;37.422;2023-11-21T22:10:24;99343.47;;;-10.58
28803;BMP280;15949;55.656;37.422;2023-11-21T22:15:29;99333.56;;;-10.66
28803;BMP280;15949;55.656;37.422;2023-11-21T22:20:35;99335.84;;;-10.71
28803;BMP280;15949;55.656;37.422;2023-11-21T22:25:40;99344.63;;;-10.61
28803;BMP280;15949;55.656;37.422;2023-11-21T22:30:46;99340.00;;;-10.57
28803;BMP280;15949;55.656;37.422;2023-11-21T22:35:52;99350.50;;;-10.53
28803;BMP280;15949;55.656;37.422;2023-11-21T22:40:57;99356.38;;;-10.40
28803;BMP280;15949;55.656;37.422;2023-11-21T22:46:03;99358.25;;;-10.55
28803;BMP280;15949;55.656;37.422;2023-11-21T22:51:09;99352.00;;;-10.59
28803;BMP280;15949;55.656;37.422;2023-11-21T22:56:16;99364.69;;;-10.74
28803;BMP280;15949;55.656;37.422;2023-11-21T23:01:27;99367.03;;;-10.72
28803;BMP280;15949;55.656;37.422;2023-11-21T23:06:32;99371.31;;;-10.66
28803;BMP280;15949;55.656;37.422;2023-11-21T23:11:39;99385.94;;;-10.76
28803;BMP280;15949;55.656;37.422;2023-11-21T23:16:46;99385.19;;;-10.77
28803;BMP280;15949;55.656;37.422;2023-11-21T23:21:56;99388.97;;;-10.59
28803;BMP280;15949;55.656;37.422;2023-11-21T23:27:02;99382.16;;;-10.66
28803;BMP280;15949;55.656;37.422;2023-11-21T23:32:09;99394.94;;;-10.67
28803;BMP280;15949;55.656;37.422;2023-11-21T23:37:15;99392.41;;;-10.67
28803;BMP280;15949;55.656;37.422;2023-11-21T23:42:20;99376.66;;;-10.76
28803;BMP280;15949;55.656;37.422;2023-11-21T23:47:26;99386.84;;;-10.84
28803;BMP280;15949;55.656;37.422;2023-11-21T23:52:32;99380.34;;;-10.78
28803;BMP280;15949;55.656;37.422;2023-11-21T23:57:37;99384.75;;;-10.80
